KRNT - Renton, Washington, USA
Distance from station: W 21mi, 33km
Updated: Sat, 04-Apr-2020 9:53pm PDT

 Wind from NW
Wind: NW 7 mph , 11 km/h
Temperature: 48°F , 9°C
Wind Chill: 45°F , 7°C
Dew Point: 34°F , 1°C
Humidity: 58%
Barometer: 29.64 inHg , 1003.7 hPa
Visibility: 10 miles , 16 km
Cloud details: 9500 ft
2020/04/05 04:53 KRNT 050453Z AUTO 31006KT 10SM OVC095 09/01 A2964 RMK AO2 SLP041 T00890006 $
KBFI - Seattle/Boeing, Washington, USA
Distance from station: W 25mi, 41km
Updated: Sat, 04-Apr-2020 9:53pm PDT

 Wind from NNW
Wind: NNW 6 mph , 9 km/h
Temperature: 48°F , 9°C
Wind Chill: 45°F , 7°C
Dew Point: 34°F , 1°C
Humidity: 58%
Barometer: 29.65 inHg , 1004.1 hPa
Visibility: 10 miles , 16 km
Cloud details: 8000 ft
9500 ft
2020/04/05 04:53 KBFI 050453Z 34005KT 10SM BKN080 OVC095 09/01 A2965 RMK AO2 SLP039 T00890011
 
KSEA - Seattle/Metro, Washington, USA
Distance from station: W 25mi, 41km
Updated: Sat, 04-Apr-2020 9:53pm PDT

 Wind from N
Wind: N 10 mph , 17 km/h
Temperature: 46°F , 8°C
Wind Chill: 41°F , 5°C
Dew Point: 36°F , 2°C
Humidity: 66%
Barometer: 29.63 inHg , 1003.4 hPa
Visibility: 10 miles , 16 km
Cloud details: 9000 ft
2020/04/05 04:53 KSEA 050453Z 01009KT 10SM OVC090 08/02 A2963 RMK AO2 SLP042 T00830017
KSMP - Stampede Pass, Washington, USA
Distance from station: SE 26mi, 41km
Updated: Sat, 04-Apr-2020 9:56pm PDT
Haze, Overcast
Haze, Overcast
 Wind from varies
Wind: varies 3 mph , 6 km/h
Temperature: 30°F , -1°C
Dew Point: 23°F , -5°C
Humidity: 75%
Barometer: 29.57 inHg , 1001.4 hPa
Visibility: 6 miles , 10 km
Cloud details: 3900 ft
2020/04/05 04:56 KSMP 050456Z AUTO VRB03KT 6SM HZ OVC039 M01/M05 A2957 RMK AO2 SLP038 T10111050
 
KPLU - Puyallup/Thun, Washington, USA
Distance from station: SW 36mi, 59km
Updated: Sat, 04-Apr-2020 10:35pm PDT

 Wind from calm
Wind: Calm
Temperature: 45°F , 7°C
Dew Point: 36°F , 2°C
Humidity: 71%
Barometer: 29.63 inHg , 1003.4 hPa
Visibility: 10 miles , 16 km
Cloud details: 1300 ft
3000 ft
4100 ft
2020/04/05 05:35 KPLU 050535Z AUTO 00000KT 10SM FEW013 SCT030 OVC041 07/02 A2963 RMK AO2
KPAE - Everett, Washington, USA
Distance from station: NW 37mi, 60km
Updated: Sat, 04-Apr-2020 9:53pm PDT

 Wind from N
Wind: N 6 mph , 9 km/h
Temperature: 45°F , 7°C
Wind Chill: 42°F , 6°C
Dew Point: 34°F , 1°C
Humidity: 66%
Barometer: 29.65 inHg , 1004.1 hPa
Visibility: 10 miles , 16 km
Cloud details: 9500 ft
2020/04/05 04:53 KPAE 050453Z AUTO 35005KT 10SM OVC095 07/01 A2965 RMK AO2 SLP043 T00720011
 
KTIW - Tacoma, Washington, USA
Distance from station: WSW 41mi, 66km
Updated: Sat, 04-Apr-2020 9:53pm PDT

 Wind from N
Wind: N 13 mph , 20 km/h
Temperature: 45°F , 7°C
Wind Chill: 39°F , 4°C
Dew Point: 32°F , 0°C
Humidity: 61%
Barometer: 29.63 inHg , 1003.4 hPa
Visibility: 10 miles , 16 km
Cloud details: 7500 ft
2020/04/05 04:53 KTIW 050453Z AUTO 01011KT 10SM OVC075 07/00 A2963 RMK AO2 SLP037 T00720000
KTCM - Tacoma/Mc Chord, Washington, USA
Distance from station: SW 42mi, 67km
Updated: Sat, 04-Apr-2020 10:30pm PDT
Light rain, Overcast
Light rain, Overcast
 Wind from calm
Wind: Calm
Temperature: 46°F , 8°C
Dew Point: 34°F , 1°C
Humidity: 62%
Barometer: 29.64 inHg , 1003.7 hPa
Visibility: 10 miles , 16 km
Cloud details: 3400 ft
4700 ft
6000 ft
2020/04/05 05:30 KTCM 050530Z AUTO 00000KT 10SM -RA FEW034 BKN047 OVC060 08/01 A2964 RMK AO2 RAB30 SLP042 $
 
KPWT - Bremerton Ntnl, Washington, USA
Distance from station: W 45mi, 73km
Updated: Sat, 04-Apr-2020 9:56pm PDT

 Wind from NE
Wind: NE 8 mph , 13 km/h
Temperature: 45°F , 7°C
Wind Chill: 41°F , 5°C
Dew Point: 30°F , -1°C
Humidity: 57%
Barometer: 29.64 inHg , 1003.7 hPa
Visibility: 10 miles , 16 km
Cloud details: 7000 ft
2020/04/05 04:56 KPWT 050456Z AUTO 05007KT 10SM FEW070 07/M01 A2964 RMK AO2 SLP043 T00671011
KGRF - Fort Lewis/Gray, Washington, USA
Distance from station: SW 48mi, 77km
Updated: Sat, 04-Apr-2020 9:58pm PDT

 Wind from calm
Wind: Calm
Temperature: 48°F , 9°C
Dew Point: 36°F , 2°C
Humidity: 62%
Barometer: 29.63 inHg , 1003.4 hPa
Visibility: 10 miles , 16 km
Cloud details: 5000 ft
9000 ft
2020/04/05 04:58 KGRF 050458Z AUTO 00000KT 10SM FEW050 FEW090 09/02 A2963 RMK AO2 SLP039 T00880024 $
 
KAWO - Arlington Muni, Washington, USA
Distance from station: NNW 50mi, 80km
Updated: Sat, 04-Apr-2020 9:56pm PDT

 Wind from NNW
Wind: NNW 5 mph , 7 km/h
Temperature: 43°F , 6°C
Wind Chill: 40°F , 4°C
Dew Point: 34°F , 1°C
Humidity: 71%
Barometer: 29.66 inHg , 1004.4 hPa
Visibility: 10 miles , 16 km
Cloud details: 10000 ft
2020/04/05 04:56 KAWO 050456Z AUTO 33004KT 10SM BKN100 06/01 A2966 RMK AO2 SLP049 T00560011